Atmospheric History
02/08/2018 17:46  to  2/9/2018 17:46
Change End Date:
To complete the export process:
1) Select all of the data below
2) Copy the data to the clipboard
3) Open a word processor such as Notepad
4) Paste the data into the word processor
5) Save the file

Date/Time (MST), AirTemp, RH, Dewpoint ,AvgWindSpeed, GustWindSpeed, WindDirection, PrecipType, PrecipIntensity, PrecipAccumulation, PrecipRate ,Visibility
02/09/2018 17:42, -14, 77, 17 ,0, 5, N, None, None, 0.08, 0 ,6560
02/09/2018 17:32, -13, 78, 17 ,6, 6, N, None, None, 0.09, 0 ,6560
02/09/2018 17:30, -13, 78, 17 ,5, 6, N, None, None, 0.09, 0 ,6560
02/09/2018 17:22, -12, 79, 17 ,5, 7, N, None, None, 0.09, 0 ,6560
02/09/2018 17:12, -11, 78, 17 ,4, 7, N, None, None, 0.09, 0 ,6560
02/09/2018 17:02, -11, 78, 17 ,6, 9, N, None, None, 0.09, 0 ,6560
02/09/2018 17:00, -11, 78, 17 ,7, 9, N, None, None, 0.09, 0 ,6560
02/09/2018 16:52, -11, 78, 17 ,8, 9, N, None, None, 0.1, 0 ,6560
02/09/2018 16:42, -10, 78, 17 ,9, 9, N, None, None, 0.1, 0 ,6560
02/09/2018 16:32, -10, 78, 17 ,7, 9, N, None, None, 0.1, 0 ,6560
02/09/2018 16:30, -10, 78, 17 ,8, 9, N, None, None, 0.1, 0 ,6560
02/09/2018 16:21, -10, 78, 17 ,7, 9, SE, None, None, 0.1, 0 ,6560
02/09/2018 16:11, -9, 78, 17 ,6, 7, S, None, None, 0.1, 0 ,6560
02/09/2018 16:01, -9, 78, 17 ,6, 6, S, None, None, 0.1, 0 ,6560
02/09/2018 16:00, -9, 78, 17 ,6, 6, S, None, None, 0.1, 0 ,6560
02/09/2018 15:51, -7, 77, 17 ,3, 4, S, None, None, 0.11, 0 ,6560
02/09/2018 15:41, -6, 79, 17 ,2, 2, SW, None, None, 0.11, 0 ,6560
02/09/2018 15:31, -5, 78, 17 ,2, 3, S, None, None, 0.11, 0 ,6560
02/09/2018 15:30, -5, 78, 17 ,2, 3, S, None, None, 0.11, 0 ,6560
02/09/2018 15:21, 0, 82, 17 ,1, 1, S, None, None, 0.11, 0 ,6560
02/09/2018 15:11, -1, 83, 17 ,0, 2, S, None, None, 0.11, 0 ,6560
02/09/2018 15:01, -7, 79, 17 ,1, 3, S, None, None, 0.11, 0 ,6560
02/09/2018 15:00, -7, 79, 17 ,1, 3, S, None, None, 0.11, 0 ,6560
02/09/2018 14:51, -7, 79, 17 ,2, 6, S, None, None, 0.11, 0 ,6560
02/09/2018 14:41, -8, 78, 17 ,5, 6, S, None, None, 0.11, 0 ,6560
02/09/2018 14:31, -8, 78, 17 ,3, 5, SE, None, None, 0.11, 0 ,6560
02/09/2018 14:30, -8, 78, 17 ,4, 5, S, None, None, 0.11, 0 ,6560
02/09/2018 14:21, -9, 78, 17 ,4, 6, SE, None, None, 0.11, 0 ,6560
02/09/2018 14:11, -9, 78, 17 ,4, 7, S, None, None, 0.12, 0 ,6560
02/09/2018 14:01, -9, 78, 17 ,7, 8, S, None, None, 0.12, 0 ,6560
02/09/2018 14:00, -9, 78, 17 ,7, 8, S, None, None, 0.12, 0 ,6560
02/09/2018 13:51, -10, 78, 17 ,6, 7, S, None, None, 0.12, 0 ,6560
02/09/2018 13:41, -10, 78, 17 ,7, 9, S, Snow, Slight, 0.12, 0 ,6560
02/09/2018 13:31, -11, 78, 17 ,10, 11, S, Snow, Slight, 0.12, 0 ,6560
02/09/2018 13:20, -11, 77, 17 ,11, 12, SE, None, None, 0.12, 0 ,6560
02/09/2018 13:10, -11, 77, 17 ,12, 13, SE, None, None, 0.12, 0 ,6560
02/09/2018 13:00, -11, 77, 17 ,9, 11, SE, None, None, 0.12, 0 ,6560
02/09/2018 13:00, -11, 77, 17 ,9, 10, SE, None, None, 0.12, 0 ,6560
02/09/2018 12:50, -11, 78, 17 ,9, 10, SE, None, None, 0.12, 0 ,6560
02/09/2018 12:40, -11, 77, 17 ,7, 10, SE, None, None, 0.12, 0 ,6560
02/09/2018 12:30, -12, 77, 17 ,9, 11, SE, None, None, 0.12, 0 ,6560
02/09/2018 12:30, -12, 77, 17 ,9, 11, SE, None, None, 0.12, 0 ,6560
02/09/2018 12:20, -12, 77, 17 ,7, 9, SE, None, None, 0.12, 0 ,6560
02/09/2018 12:10, -12, 77, 17 ,7, 9, S, None, None, 0.13, 0 ,6560
02/09/2018 12:00, -12, 77, 17 ,6, 6, S, None, None, 0.13, 0 ,6560
02/09/2018 12:00, -12, 77, 17 ,6, 6, S, None, None, 0.13, 0 ,6560
02/09/2018 11:50, -12, 78, 17 ,3, 6, SE, None, None, 0.13, 0 ,6560
02/09/2018 11:40, -13, 76, 17 ,5, 6, S, None, None, 0.13, 0 ,6560
02/09/2018 11:30, -13, 77, 17 ,2, 4, S, None, None, 0.14, 0 ,6560
02/09/2018 11:30, -13, 77, 17 ,2, 4, S, None, None, 0.14, 0 ,6560
02/09/2018 11:20, -13, 77, 17 ,3, 4, S, None, None, 0.14, 0 ,6560
02/09/2018 11:10, -14, 77, 17 ,1, 4, S, None, None, 0.14, 0 ,6560
02/09/2018 11:00, -15, 76, 17 ,4, 6, S, None, None, 0.15, 0 ,6560
02/09/2018 11:00, -15, 76, 17 ,4, 6, S, None, None, 0.15, 0 ,6560
02/09/2018 10:50, -15, 76, 17 ,5, 6, S, None, None, 0.15, 0 ,6560
02/09/2018 10:40, -14, 77, 17 ,2, 6, SE, None, None, 0.15, 0 ,6560
02/09/2018 10:30, -15, 76, 17 ,5, 6, S, None, None, 0.15, 0 ,6560
02/09/2018 10:29, -15, 76, 17 ,5, 6, S, None, None, 0.15, 0 ,6560
02/09/2018 10:19, -16, 76, 17 ,4, 6, S, None, None, 0.15, 0 ,6560
02/09/2018 10:09, -17, 76, 17 ,4, 6, S, None, None, 0.16, 0 ,6560
02/09/2018 10:00, -17, 76, 17 ,5, 6, S, None, None, 0.16, 0 ,6560
02/09/2018 09:59, -17, 76, 17 ,5, 5, S, None, None, 0.16, 0 ,6560
02/09/2018 09:49, -18, 75, 17 ,2, 4, S, None, None, 0.16, 0 ,6560
02/09/2018 09:39, -17, 75, 17 ,2, 2, S, None, None, 0.16, 0 ,6560
02/09/2018 09:30, -14, 77, 17 ,0, 0, SE, None, None, 0.16, 0 ,3831
02/09/2018 09:29, -14, 77, 17 ,0, 0, SE, None, None, 0.16, 0 ,3326
02/09/2018 09:19, -16, 76, 17 ,0, 0, SE, None, None, 0.17, 0 ,1063
02/09/2018 09:09, -15, 77, 17 ,0, 0, E, None, None, 0.17, 0 ,2112
02/09/2018 09:00, -15, 77, 17 ,0, 0, NE, None, None, 0.17, 0 ,981
02/09/2018 08:59, -15, 77, 17 ,0, 0, NE, None, None, 0.17, 0 ,928
02/09/2018 08:49, -17, 76, 17 ,0, 1, NE, None, None, 0.18, 0 ,705
02/09/2018 08:39, -16, 76, 17 ,0, 1, N, None, None, 0.19, 0 ,669
02/09/2018 08:30, -14, 77, 17 ,0, 0, NE, None, None, 0.19, 0 ,571
02/09/2018 08:29, -14, 78, 17 ,0, 0, NE, None, None, 0.19, 0 ,564
02/09/2018 08:19, -14, 78, 17 ,0, 0, NE, None, None, 0.2, 0 ,564
02/09/2018 08:09, -14, 78, 17 ,0, 0, N, None, None, 0.2, 0 ,558
02/09/2018 08:00, -14, 78, 17 ,0, 1, N, None, None, 0.2, 0 ,810
02/09/2018 07:58, -14, 78, 17 ,1, 1, N, None, None, 0.2, 0 ,840
02/09/2018 07:48, -13, 78, 17 ,0, 0, N, None, None, 0.22, 0 ,758
02/09/2018 07:38, -12, 79, 17 ,0, 0, N, None, None, 0.22, 0 ,682
02/09/2018 07:30, -12, 79, 17 ,0, 0, N, None, None, 0.22, 0 ,751
02/09/2018 07:28, -12, 79, 17 ,0, 0, N, None, None, 0.22, 0 ,754
02/09/2018 07:18, -12, 79, 17 ,0, 0, N, None, None, 0.22, 0 ,866
02/09/2018 07:08, -11, 79, 17 ,0, 0, N, None, None, 0.22, 0 ,1043
02/09/2018 07:00, -11, 79, 17 ,0, 0, N, None, None, 0.22, 0 ,987
02/09/2018 06:58, -11, 79, 17 ,0, 0, N, None, None, 0.22, 0 ,1027
02/09/2018 06:48, -11, 79, 17 ,0, 1, N, None, None, 0.22, 0 ,1191
02/09/2018 06:38, -11, 79, 17 ,0, 1, N, None, None, 0.23, 0 ,941
02/09/2018 06:30, -11, 79, 17 ,1, 2, N, None, None, 0.24, 0 ,856
02/09/2018 06:28, -11, 79, 17 ,1, 2, N, None, None, 0.24, 0 ,863
02/09/2018 06:18, -10, 80, 17 ,0, 1, N, None, None, 0.24, 0 ,902
02/09/2018 06:08, -11, 79, 17 ,0, 1, N, None, None, 0.25, 0 ,872
02/09/2018 06:00, -10, 80, 17 ,0, 1, N, None, None, 0.25, 0 ,945
02/09/2018 05:58, -10, 80, 17 ,0, 2, N, None, None, 0.25, 0 ,915
02/09/2018 05:48, -10, 80, 17 ,1, 2, N, None, None, 0.25, 0 ,748
02/09/2018 05:38, -10, 80, 17 ,2, 2, N, None, None, 0.25, 0 ,830
02/09/2018 05:30, -10, 80, 17 ,2, 3, N, None, None, 0.26, 0 ,850
02/09/2018 05:28, -9, 80, 17 ,2, 3, N, None, None, 0.26, 0 ,833
02/09/2018 05:18, -10, 80, 17 ,0, 1, N, None, None, 0.26, 0 ,804
02/09/2018 05:08, -10, 80, 17 ,0, 4, N, None, None, 0.26, 0 ,968
02/09/2018 05:00, -9, 80, 17 ,4, 4, N, None, None, 0.26, 0 ,1870
02/09/2018 04:58, -10, 80, 17 ,4, 4, NE, None, None, 0.26, 0 ,2834
02/09/2018 04:48, -9, 80, 17 ,4, 6, NE, None, None, 0.26, 0 ,6560
02/09/2018 04:38, -8, 80, 17 ,5, 6, NE, Snow, Slight, 0.26, 0 ,6560
02/09/2018 04:30, -7, 81, 17 ,5, 6, NE, None, None, 0.26, 0 ,6560
02/09/2018 04:27, -7, 81, 17 ,6, 6, NE, Snow, Slight, 0.26, 0 ,6560
02/09/2018 04:17, -7, 81, 17 ,5, 7, NE, Snow, Slight, 0.26, 0 ,6560
02/09/2018 04:07, -5, 82, 17 ,6, 7, NE, Snow, Slight, 0.26, 0 ,6560
02/09/2018 04:00, -5, 82, 17 ,6, 7, NE, Snow, Slight, 0.26, 0 ,6560
02/09/2018 03:57, -5, 82, 17 ,6, 7, NE, None, None, 0.26, 0 ,6560
02/09/2018 03:47, -4, 83, 17 ,7, 9, N, None, None, 0.26, 0 ,6560
02/09/2018 03:37, -4, 83, 17 ,7, 8, N, None, None, 0.26, 0 ,6560
02/09/2018 03:30, -4, 83, 17 ,7, 7, N, None, None, 0.26, 0 ,6560
02/09/2018 03:27, -4, 83, 17 ,6, 7, N, None, None, 0.26, 0 ,6560
02/09/2018 03:17, -4, 83, 17 ,6, 7, N, None, None, 0.26, 0 ,6560
02/09/2018 03:07, -4, 83, 17 ,6, 7, NE, None, None, 0.26, 0 ,6560
02/09/2018 03:00, -4, 83, 17 ,6, 9, NE, None, None, 0.26, 0 ,6560
02/09/2018 02:57, -4, 83, 17 ,6, 9, NE, None, None, 0.26, 0 ,6560
02/09/2018 02:47, -4, 84, 17 ,7, 7, N, Snow, Slight, 0.26, 0 ,6560
02/09/2018 02:37, -4, 84, 17 ,8, 9, NE, Snow, Slight, 0.26, 0 ,6560
02/09/2018 02:30, -4, 83, 17 ,7, 9, NE, Snow, Slight, 0.26, 0 ,6560
02/09/2018 02:27, -4, 83, 17 ,7, 9, N, Snow, Slight, 0.26, 0 ,6560
02/09/2018 02:17, -3, 82, 17 ,7, 9, N, Snow, Slight, 0.26, 0 ,6560
02/09/2018 02:07, -3, 82, 17 ,7, 9, N, Snow, Slight, 0.26, 0 ,6560
02/09/2018 02:00, -3, 82, 17 ,8, 9, N, Snow, Slight, 0.27, 0 ,6560
02/09/2018 01:57, -3, 81, 17 ,7, 9, N, Snow, Slight, 0.27, 0 ,6560
02/09/2018 01:47, -3, 81, 17 ,9, 9, N, Snow, Slight, 0.27, 0 ,6560
02/09/2018 01:36, -3, 82, 17 ,7, 8, N, Snow, Slight, 0.27, 0 ,4641
02/09/2018 01:30, -3, 81, 17 ,7, 7, N, Snow, Slight, 0.27, 0 ,5707
02/09/2018 01:26, -3, 81, 17 ,7, 8, N, Snow, Slight, 0.27, 0 ,6560
02/09/2018 01:16, -3, 81, 17 ,7, 9, N, Snow, Slight, 0.26, 0 ,6560
02/09/2018 01:06, -3, 81, 17 ,7, 9, N, Snow, Slight, 0.26, 0 ,6560
02/09/2018 01:00, -3, 81, 17 ,7, 9, N, Snow, Slight, 0.26, 0 ,6560
02/09/2018 00:56, -3, 81, 17 ,7, 9, N, Snow, Slight, 0.26, 0 ,6560
02/09/2018 00:46, -3, 81, 17 ,7, 9, N, Snow, Slight, 0.26, 0 ,6560
02/09/2018 00:36, -3, 82, 17 ,7, 9, N, Snow, Slight, 0.26, 0 ,6560
02/09/2018 00:30, -3, 82, 17 ,8, 9, N, Snow, Slight, 0.26, 0 ,6560
02/09/2018 00:26, -3, 82, 17 ,8, 9, NE, Snow, Slight, 0.26, 0 ,6560
02/09/2018 00:16, -3, 82, 17 ,8, 9, N, Snow, Slight, 0.26, 0 ,6560
02/09/2018 00:06, -3, 82, 17 ,7, 9, N, Snow, Slight, 0.26, 0 ,6560
02/09/2018 00:00, -3, 82, 17 ,7, 10, NE, Snow, Slight, 0.26, 0 ,6560
02/08/2018 23:56, -3, 82, 17 ,9, 10, N, Snow, Slight, 0.26, 0 ,6560
02/08/2018 23:46, -3, 83, 17 ,9, 10, N, Snow, Slight, 0.26, 0 ,6560
02/08/2018 23:36, -3, 82, 17 ,9, 11, NE, Snow, Slight, 0.26, 0 ,6560
02/08/2018 23:30, -3, 83, 17 ,7, 10, N, Snow, Slight, 0.26, 0 ,6560
02/08/2018 23:26, -3, 83, 17 ,8, 11, NE, Snow, Slight, 0.26, 0 ,6560
02/08/2018 23:16, -3, 83, 17 ,10, 12, N, Snow, Slight, 0.26, 0 ,6560
02/08/2018 23:05, -3, 83, 17 ,11, 12, N, Snow, Slight, 0.26, 0 ,6560
02/08/2018 23:00, -3, 84, 17 ,9, 12, N, Snow, Slight, 0.26, 0 ,6255
02/08/2018 22:55, -3, 84, 17 ,11, 12, N, Snow, Slight, 0.26, 0 ,6170
02/08/2018 22:45, -3, 84, 17 ,9, 11, N, Snow, Slight, 0.26, 0 ,6560
02/08/2018 22:35, -3, 84, 17 ,10, 12, N, Snow, Slight, 0.26, 0 ,6560
02/08/2018 22:30, -3, 84, 17 ,9, 11, N, Snow, Slight, 0.26, 0 ,6560
02/08/2018 22:25, -3, 84, 17 ,9, 11, N, Snow, Slight, 0.26, 0 ,6560
02/08/2018 22:15, -3, 84, 17 ,9, 11, N, None, None, 0.26, 0 ,6560
02/08/2018 22:05, -3, 84, 17 ,11, 12, N, None, None, 0.26, 0 ,6560
02/08/2018 22:00, -3, 83, 17 ,10, 12, N, Snow, Slight, 0.26, 0 ,6560
02/08/2018 21:55, -3, 83, 17 ,9, 12, N, Snow, Slight, 0.26, 0 ,6560
02/08/2018 21:45, -3, 83, 17 ,9, 12, NE, None, None, 0.26, 0 ,6560
02/08/2018 21:35, -3, 82, 17 ,10, 12, NE, Snow, Slight, 0.26, 0 ,6560
02/08/2018 21:30, -3, 82, 17 ,11, 12, N, Snow, Slight, 0.26, 0 ,6560
02/08/2018 21:25, -3, 82, 17 ,11, 12, N, Snow, Slight, 0.26, 0 ,6560
02/08/2018 21:15, -3, 81, 17 ,11, 12, N, Snow, Slight, 0.26, 0 ,6560
02/08/2018 21:05, -2, 81, 17 ,9, 12, N, Snow, Slight, 0.26, 0 ,6560
02/08/2018 21:00, -2, 81, 17 ,10, 13, N, Snow, Slight, 0.26, 0 ,6120
02/08/2018 20:55, -2, 81, 17 ,11, 13, N, Snow, Slight, 0.26, 0 ,5871
02/08/2018 20:45, -2, 80, 17 ,12, 14, N, Snow, Slight, 0.26, 0 ,6560
02/08/2018 20:35, -2, 80, 17 ,12, 15, N, Snow, Slight, 0.26, 0 ,6560
02/08/2018 20:30, -2, 80, 17 ,13, 15, N, Snow, Slight, 0.26, 0 ,6560
02/08/2018 20:24, -2, 80, 17 ,12, 16, N, Snow, Slight, 0.26, 0 ,6560
02/08/2018 20:14, -2, 80, 17 ,12, 14, N, Snow, Slight, 0.26, 0 ,6560
02/08/2018 20:04, -2, 80, 17 ,12, 14, N, Snow, Slight, 0.26, 0 ,6560
02/08/2018 20:00, -2, 80, 17 ,12, 14, N, Snow, Slight, 0.26, 0 ,6560
02/08/2018 19:54, -2, 80, 17 ,13, 15, N, Snow, Slight, 0.27, 0 ,6560
02/08/2018 19:44, -2, 80, 17 ,12, 16, N, Snow, Slight, 0.27, 0 ,5819
02/08/2018 19:34, -2, 80, 17 ,14, 17, N, Snow, Slight, 0.27, 0 ,6560
02/08/2018 19:30, -2, 80, 17 ,14, 17, N, Snow, Slight, 0.27, 0 ,6560
02/08/2018 19:24, -2, 80, 17 ,14, 17, N, Snow, Slight, 0.27, 0 ,6560
02/08/2018 19:14, -2, 80, 17 ,13, 16, N, Snow, Slight, 0.28, 0 ,6560
02/08/2018 19:04, -2, 81, 17 ,12, 14, N, Snow, Slight, 0.27, 0 ,5596
02/08/2018 19:00, -2, 81, 17 ,12, 14, N, Snow, Slight, 0.26, 0 ,5432
02/08/2018 18:54, -2, 81, 17 ,12, 15, N, Snow, Slight, 0.26, 0 ,6560
02/08/2018 18:44, -2, 81, 17 ,11, 16, N, Snow, Slight, 0.26, 0 ,3624
02/08/2018 18:34, -2, 81, 17 ,13, 16, N, Snow, Slight, 0.26, 0 ,3706
02/08/2018 18:30, -2, 81, 17 ,14, 17, N, Snow, Slight, 0.26, 0 ,3857
02/08/2018 18:24, -2, 82, 17 ,15, 17, N, Snow, Slight, 0.26, 0 ,1466
02/08/2018 18:14, -2, 82, 17 ,12, 17, N, Snow, Moderate, 0.26, 0.1 ,1994
02/08/2018 18:04, -2, 82, 17 ,15, 18, N, Snow, Moderate, 0.25, 0.1 ,1856
02/08/2018 18:00, -2, 82, 17 ,16, 18, N, Snow, Moderate, 0.24, 0.1 ,1811
02/08/2018 17:53, -1, 80, 17 ,16, 19, N, Snow, Moderate, 0.24, 0.1 ,2837
Change End Date:

Copyright © 1998-2015 Vaisala, Inc.
All Rights Reserved
Send comments about the data to:
SCAN Web ® is a registered trademark of Vaisala, Inc.
SCAN Web Version 6.0